Time;durP1;ratioP1;P1;durP2;ratioP2;P2;SDS_P1;SDS_P2;PMS_P1;PMS_P2;Temp;Humidity;BMP_temperature;BMP_pressure;BME280_temperature;BME280_humidity;BME280_pressure;Samples;Min_cycle;Max_cycle;Signal;HPM_P1;HPM_P2
2021/09/16 00:00:16;;;;;;;7.17;2.60;;;;;;;;;;4991595;28;20465;-84
2021/09/16 00:02:43;;;;;;;4.70;2.20;;;;;;;;;;4992304;28;20419;-87
2021/09/16 00:05:11;;;;;;;3.43;1.73;;;;;;;;;;4992047;28;20457;-84
2021/09/16 00:07:38;;;;;;;3.60;1.93;;;;;;;;;;4992634;28;20436;-82
2021/09/16 00:10:06;;;;;;;3.83;2.00;;;;;;;;;;4994440;28;20491;-84
2021/09/16 00:12:33;;;;;;;2.40;1.73;;;;;;;;;;4994262;28;20947;-85
2021/09/16 00:15:02;;;;;;;3.00;1.73;;;;;;;;;;4993986;28;20443;-81
2021/09/16 00:17:29;;;;;;;3.57;1.43;;;;;;;;;;4990964;28;20411;-81
2021/09/16 00:19:56;;;;;;;2.90;1.80;;;;;;;;;;4988146;28;20499;-82
2021/09/16 00:22:23;;;;;;;3.37;1.70;;;;;;;;;;4991108;28;20425;-86
2021/09/16 00:24:50;;;;;;;3.30;1.80;;;;;;;;;;4992106;28;20522;-83
2021/09/16 00:27:17;;;;;;;4.90;1.73;;;;;;;;;;4992064;28;20426;-86
2021/09/16 00:29:45;;;;;;;3.37;1.60;;;;;;;;;;4991948;28;20496;-81
2021/09/16 00:32:13;;;;;;;6.10;2.43;;;;;;;;;;4994255;28;20432;-85
2021/09/16 00:34:40;;;;;;;2.37;1.20;;;;;;;;;;4994397;28;20424;-83
2021/09/16 00:37:07;;;;;;;4.43;1.60;;;;;;;;;;4993802;28;20450;-82
2021/09/16 00:39:35;;;;;;;2.70;1.47;;;;;;;;;;4991110;28;20809;-84
2021/09/16 00:42:02;;;;;;;2.67;1.90;;;;;;;;;;4987338;28;20427;-85
2021/09/16 00:44:29;;;;;;;4.10;1.43;;;;;;;;;;4990488;28;20426;-84
2021/09/16 00:46:56;;;;;;;3.20;1.60;;;;;;;;;;4991722;28;23077;-84
2021/09/16 00:49:25;;;;;;;2.83;1.50;;;;;;;;;;4992099;28;20494;-84
2021/09/16 00:51:52;;;;;;;1.90;1.60;;;;;;;;;;4991663;28;20475;-85
2021/09/16 00:54:21;;;;;;;2.20;1.40;;;;;;;;;;4992756;28;20467;-85
2021/09/16 00:56:50;;;;;;;8.93;2.70;;;;;;;;;;4993112;28;20982;-86
2021/09/16 00:59:18;;;;;;;3.83;1.57;;;;;;;;;;4993942;28;20465;-84
2021/09/16 01:01:45;;;;;;;2.73;1.53;;;;;;;;;;4991342;28;20447;-83
2021/09/16 01:04:12;;;;;;;2.90;2.03;;;;;;;;;;4989566;28;20760;-85
2021/09/16 01:06:41;;;;;;;3.23;1.90;;;;;;;;;;4993928;28;20799;-84
2021/09/16 01:09:11;;;;;;;3.90;1.50;;;;;;;;;;4995409;28;20471;-84
2021/09/16 01:11:38;;;;;;;5.10;1.57;;;;;;;;;;4995353;28;20443;-81
2021/09/16 01:14:05;;;;;;;5.40;1.73;;;;;;;;;;4995939;28;20425;-84
2021/09/16 01:16:32;;;;;;;4.27;1.70;;;;;;;;;;4997031;28;20879;-84
2021/09/16 01:18:59;;;;;;;2.10;1.50;;;;;;;;;;4996723;28;20447;-85
2021/09/16 01:21:26;;;;;;;3.80;1.60;;;;;;;;;;4997517;28;20451;-84
2021/09/16 01:23:55;;;;;;;3.67;1.60;;;;;;;;;;4995164;28;20454;-83
2021/09/16 01:26:22;;;;;;;5.13;1.70;;;;;;;;;;4991008;28;20467;-84
2021/09/16 01:28:49;;;;;;;3.67;1.83;;;;;;;;;;4992878;28;20435;-85
2021/09/16 01:31:16;;;;;;;3.50;1.70;;;;;;;;;;4995292;28;20474;-85
2021/09/16 01:33:43;;;;;;;3.97;1.67;;;;;;;;;;4994499;28;20448;-86
2021/09/16 01:36:12;;;;;;;2.33;1.70;;;;;;;;;;4995311;28;20451;-85
2021/09/16 01:38:39;;;;;;;2.37;1.70;;;;;;;;;;4996249;28;20471;-86
2021/09/16 01:41:07;;;;;;;2.07;1.70;;;;;;;;;;4996885;28;20460;-83
2021/09/16 01:43:34;;;;;;;1.57;1.40;;;;;;;;;;4996754;28;20443;-83
2021/09/16 01:46:01;;;;;;;5.30;1.50;;;;;;;;;;4995910;28;20956;-85
2021/09/16 01:48:29;;;;;;;4.73;1.97;;;;;;;;;;4990735;28;20444;-84
2021/09/16 01:50:56;;;;;;;3.43;1.60;;;;;;;;;;4992512;28;20559;-83
2021/09/16 01:53:23;;;;;;;4.20;1.67;;;;;;;;;;4994595;28;20802;-86
2021/09/16 01:55:50;;;;;;;3.20;1.83;;;;;;;;;;4994522;28;20444;-83
2021/09/16 01:58:18;;;;;;;3.27;1.67;;;;;;;;;;4994584;28;20411;-82
2021/09/16 02:00:46;;;;;;;5.97;2.33;;;;;;;;;;4995005;28;20972;-85
2021/09/16 02:03:13;;;;;;;3.10;1.90;;;;;;;;;;4996676;28;20954;-83
2021/09/16 02:05:40;;;;;;;6.03;2.00;;;;;;;;;;4996904;28;20419;-87
2021/09/16 02:08:07;;;;;;;2.90;1.70;;;;;;;;;;4978711;28;20457;-86
2021/09/16 02:10:34;;;;;;;6.83;2.30;;;;;;;;;;4990436;28;20487;-84
2021/09/16 02:13:02;;;;;;;2.40;1.43;;;;;;;;;;4991669;28;20992;-85
2021/09/16 02:15:30;;;;;;;2.83;1.57;;;;;;;;;;4996581;28;20819;-82
2021/09/16 02:17:57;;;;;;;4.07;1.87;;;;;;;;;;5000998;28;20429;-83
2021/09/16 02:20:24;;;;;;;3.33;1.83;;;;;;;;;;4996388;28;20445;-84
2021/09/16 02:22:52;;;;;;;2.90;1.60;;;;;;;;;;4995415;28;20462;-84
2021/09/16 02:25:19;;;;;;;4.10;1.70;;;;;;;;;;4997244;28;20801;-84
2021/09/16 02:27:46;;;;;;;4.83;1.80;;;;;;;;;;5001193;28;20451;-84
2021/09/16 02:30:14;;;;;;;2.30;1.60;;;;;;;;;;5003972;28;20595;-83
2021/09/16 02:32:42;;;;;;;2.70;1.57;;;;;;;;;;4990881;28;20944;-86
2021/09/16 02:35:11;;;;;;;3.90;1.70;;;;;;;;;;4990706;28;20428;-85
2021/09/16 02:37:38;;;;;;;3.40;2.03;;;;;;;;;;4994159;28;20448;-85
2021/09/16 02:40:05;;;;;;;2.03;1.60;;;;;;;;;;4994110;28;20444;-86
2021/09/16 02:42:32;;;;;;;2.87;1.60;;;;;;;;;;4994071;28;20451;-84
2021/09/16 02:45:00;;;;;;;1.57;1.47;;;;;;;;;;4994401;28;20816;-86
2021/09/16 02:47:27;;;;;;;3.20;1.70;;;;;;;;;;4995095;28;20442;-83
2021/09/16 02:49:55;;;;;;;4.90;2.03;;;;;;;;;;4992703;28;20498;-87
2021/09/16 02:52:23;;;;;;;4.20;1.80;;;;;;;;;;4989180;28;20456;-84
2021/09/16 02:54:50;;;;;;;3.97;1.77;;;;;;;;;;4992250;28;20452;-85
2021/09/16 02:57:17;;;;;;;2.40;1.80;;;;;;;;;;4993426;28;20436;-84
2021/09/16 02:59:44;;;;;;;2.37;1.73;;;;;;;;;;4993722;28;20464;-84
2021/09/16 03:02:11;;;;;;;2.70;1.57;;;;;;;;;;4993614;28;20549;-83
2021/09/16 03:04:38;;;;;;;3.97;1.93;;;;;;;;;;4999378;28;20464;-81
2021/09/16 03:07:07;;;;;;;3.20;1.97;;;;;;;;;;4995827;28;20432;-83
2021/09/16 03:09:34;;;;;;;4.23;1.97;;;;;;;;;;4995690;28;21054;-88
2021/09/16 03:12:01;;;;;;;3.73;2.00;;;;;;;;;;4993224;28;20491;-84
2021/09/16 03:14:28;;;;;;;1.93;1.60;;;;;;;;;;4989007;28;20443;-82
2021/09/16 03:16:55;;;;;;;2.90;2.20;;;;;;;;;;4991037;28;20448;-86
2021/09/16 03:19:22;;;;;;;3.00;2.27;;;;;;;;;;4992718;28;20977;-84
2021/09/16 03:21:50;;;;;;;6.07;2.50;;;;;;;;;;4993016;28;20804;-81
2021/09/16 03:24:18;;;;;;;3.23;2.20;;;;;;;;;;4993403;28;20804;-82
2021/09/16 03:26:45;;;;;;;3.50;2.00;;;;;;;;;;4993999;28;20448;-84
2021/09/16 03:29:12;;;;;;;6.20;2.10;;;;;;;;;;4993982;28;20809;-84
2021/09/16 03:34:23;;;;;;;2.93;2.07;;;;;;;;;;4970436;28;20815;-85
2021/09/16 03:36:50;;;;;;;3.30;1.97;;;;;;;;;;4979665;28;21189;-84
2021/09/16 03:39:18;;;;;;;3.70;2.20;;;;;;;;;;4990908;28;20460;-84
2021/09/16 03:41:45;;;;;;;8.80;3.23;;;;;;;;;;4992481;28;20447;-82
2021/09/16 03:44:13;;;;;;;5.17;2.37;;;;;;;;;;4993029;28;20455;-86
2021/09/16 03:46:43;;;;;;;4.07;2.30;;;;;;;;;;4992555;28;20452;-84
2021/09/16 03:49:19;;;;;;;3.37;2.40;;;;;;;;;;4994047;28;20466;-85
2021/09/16 03:51:47;;;;;;;3.47;2.40;;;;;;;;;;4994184;28;20508;-84
2021/09/16 03:54:14;;;;;;;7.60;2.10;;;;;;;;;;4994743;28;21488;-87
2021/09/16 03:56:42;;;;;;;3.67;2.07;;;;;;;;;;4992907;28;20450;-86
2021/09/16 03:59:09;;;;;;;6.27;2.27;;;;;;;;;;4988526;28;20463;-82
2021/09/16 04:01:37;;;;;;;5.17;2.47;;;;;;;;;;4990121;28;20803;-85
2021/09/16 04:04:04;;;;;;;4.13;2.77;;;;;;;;;;4992645;28;20454;-88
2021/09/16 04:06:31;;;;;;;4.57;2.67;;;;;;;;;;4992443;28;20454;-84
2021/09/16 04:08:58;;;;;;;4.43;2.93;;;;;;;;;;4992321;28;20470;-81
2021/09/16 04:11:25;;;;;;;6.43;3.50;;;;;;;;;;4993821;28;20492;-82
2021/09/16 04:13:54;;;;;;;4.90;3.10;;;;;;;;;;4994193;28;20786;-85
2021/09/16 04:16:21;;;;;;;5.10;3.40;;;;;;;;;;4994465;28;20449;-83
2021/09/16 04:18:48;;;;;;;5.90;3.40;;;;;;;;;;4992959;28;20461;-85
2021/09/16 04:21:15;;;;;;;4.17;3.73;;;;;;;;;;4988162;28;20932;-83
2021/09/16 04:23:42;;;;;;;8.47;4.47;;;;;;;;;;4989774;28;20450;-85
2021/09/16 04:26:10;;;;;;;4.77;4.03;;;;;;;;;;4992400;28;20447;-82
2021/09/16 04:28:37;;;;;;;6.40;4.07;;;;;;;;;;4991091;28;20447;-84
2021/09/16 04:31:05;;;;;;;7.00;3.63;;;;;;;;;;4992333;28;20494;-83
2021/09/16 04:33:32;;;;;;;6.83;4.10;;;;;;;;;;4992062;28;20477;-83
2021/09/16 04:36:00;;;;;;;4.70;3.00;;;;;;;;;;4989333;28;20479;-84
2021/09/16 04:38:27;;;;;;;4.73;3.40;;;;;;;;;;4989779;28;20781;-84
2021/09/16 04:40:54;;;;;;;5.73;3.70;;;;;;;;;;4996928;28;20568;-85
2021/09/16 04:43:21;;;;;;;7.87;3.40;;;;;;;;;;4997392;28;20443;-85
2021/09/16 04:45:48;;;;;;;6.27;3.60;;;;;;;;;;4998565;28;20534;-83
2021/09/16 04:48:17;;;;;;;5.00;3.33;;;;;;;;;;4998137;28;20450;-82
2021/09/16 04:50:44;;;;;;;5.90;3.60;;;;;;;;;;5000010;28;20997;-83
2021/09/16 04:53:11;;;;;;;5.23;3.50;;;;;;;;;;4995094;28;20817;-81
2021/09/16 04:55:38;;;;;;;5.13;3.20;;;;;;;;;;5000521;28;20800;-84
2021/09/16 04:58:05;;;;;;;5.77;3.50;;;;;;;;;;4998345;28;20457;-82
2021/09/16 05:00:33;;;;;;;4.57;3.70;;;;;;;;;;4993970;28;20475;-85
2021/09/16 05:03:00;;;;;;;6.07;3.90;;;;;;;;;;4996337;28;20478;-84
2021/09/16 05:05:28;;;;;;;7.00;4.60;;;;;;;;;;4998574;28;20806;-83
2021/09/16 05:07:55;;;;;;;6.53;3.90;;;;;;;;;;4998313;28;20448;-83
2021/09/16 05:10:23;;;;;;;7.30;4.30;;;;;;;;;;4998564;28;20513;-86
2021/09/16 05:12:50;;;;;;;5.63;4.27;;;;;;;;;;4999312;28;20983;-84
2021/09/16 05:15:17;;;;;;;5.90;3.90;;;;;;;;;;4999435;28;20470;-83
2021/09/16 05:17:44;;;;;;;11.83;5.13;;;;;;;;;;5000051;28;20445;-81
2021/09/16 05:20:12;;;;;;;5.50;4.37;;;;;;;;;;4999371;28;20465;-82
2021/09/16 05:22:40;;;;;;;10.00;4.90;;;;;;;;;;4993804;28;20821;-80
2021/09/16 05:25:08;;;;;;;7.67;4.13;;;;;;;;;;4994317;28;20530;-83
2021/09/16 05:27:35;;;;;;;5.47;4.30;;;;;;;;;;4977875;28;20454;-82
2021/09/16 05:30:02;;;;;;;5.87;4.50;;;;;;;;;;4997435;28;20467;-83
2021/09/16 05:32:29;;;;;;;6.00;4.87;;;;;;;;;;4995474;28;20495;-83
2021/09/16 05:34:57;;;;;;;5.93;4.37;;;;;;;;;;4998151;28;20545;-83
2021/09/16 05:37:24;;;;;;;4.93;4.47;;;;;;;;;;4976443;28;20466;-84
2021/09/16 05:39:53;;;;;;;7.70;5.23;;;;;;;;;;4995787;28;20819;-84
2021/09/16 05:42:20;;;;;;;7.00;4.70;;;;;;;;;;4999563;28;20454;-83
2021/09/16 05:44:47;;;;;;;5.10;4.60;;;;;;;;;;4994361;28;20530;-83
2021/09/16 05:47:14;;;;;;;10.57;4.83;;;;;;;;;;4994366;28;20472;-84
2021/09/16 05:49:41;;;;;;;8.97;4.13;;;;;;;;;;4976336;28;20535;-82
2021/09/16 05:52:09;;;;;;;5.17;4.13;;;;;;;;;;4993490;28;20488;-84
2021/09/16 05:54:36;;;;;;;7.43;5.20;;;;;;;;;;4995233;28;20456;-84
2021/09/16 05:57:04;;;;;;;6.03;4.20;;;;;;;;;;4995165;28;20458;-85
2021/09/16 05:59:32;;;;;;;7.23;4.50;;;;;;;;;;4996278;28;20809;-86
2021/09/16 06:01:59;;;;;;;8.60;4.47;;;;;;;;;;4996357;28;20470;-80
2021/09/16 06:04:26;;;;;;;6.50;4.17;;;;;;;;;;5002978;28;20447;-83
2021/09/16 06:06:53;;;;;;;4.87;3.97;;;;;;;;;;4992167;28;20781;-83
2021/09/16 06:09:20;;;;;;;5.83;4.70;;;;;;;;;;4990725;28;20459;-83
2021/09/16 06:11:48;;;;;;;5.13;4.00;;;;;;;;;;4992015;28;21053;-83
2021/09/16 06:14:16;;;;;;;5.60;4.07;;;;;;;;;;4993901;28;21163;-83
2021/09/16 06:16:43;;;;;;;4.37;3.20;;;;;;;;;;4994205;28;20448;-83
2021/09/16 06:19:10;;;;;;;3.53;3.23;;;;;;;;;;4994982;28;20467;-82
2021/09/16 06:21:37;;;;;;;7.73;3.90;;;;;;;;;;4994953;28;20467;-82
2021/09/16 06:24:05;;;;;;;4.60;3.07;;;;;;;;;;4996210;28;20448;-78
2021/09/16 06:26:32;;;;;;;4.87;4.17;;;;;;;;;;4996469;28;20435;-84
2021/09/16 06:28:59;;;;;;;6.10;3.93;;;;;;;;;;4992548;28;20450;-83
2021/09/16 06:31:27;;;;;;;3.53;3.23;;;;;;;;;;4988527;28;20489;-82
2021/09/16 06:33:55;;;;;;;4.73;3.50;;;;;;;;;;4992366;28;20439;-81
2021/09/16 06:36:22;;;;;;;4.40;3.20;;;;;;;;;;4994009;28;20962;-81
2021/09/16 06:38:49;;;;;;;4.63;3.10;;;;;;;;;;4993183;28;20422;-79
2021/09/16 06:41:16;;;;;;;8.47;3.10;;;;;;;;;;4993003;28;20441;-81
2021/09/16 06:43:43;;;;;;;6.83;3.60;;;;;;;;;;4994541;28;20975;-82
2021/09/16 06:46:12;;;;;;;5.17;3.00;;;;;;;;;;4995327;28;20441;-85
2021/09/16 06:48:43;;;;;;;5.60;3.23;;;;;;;;;;4994862;28;20414;-82
2021/09/16 06:51:11;;;;;;;5.77;3.43;;;;;;;;;;4991480;28;20474;-81
2021/09/16 06:53:38;;;;;;;3.93;2.97;;;;;;;;;;4989061;28;20429;-82
2021/09/16 06:56:05;;;;;;;9.53;3.43;;;;;;;;;;4991951;28;20479;-81
2021/09/16 06:58:32;;;;;;;5.20;3.17;;;;;;;;;;4992481;28;20454;-84
2021/09/16 07:01:00;;;;;;;5.60;3.23;;;;;;;;;;4992584;28;20451;-86
2021/09/16 07:03:27;;;;;;;4.63;2.80;;;;;;;;;;4994800;28;20436;-86
2021/09/16 07:05:55;;;;;;;5.80;2.93;;;;;;;;;;4993240;28;20797;-83
2021/09/16 07:08:22;;;;;;;3.40;2.30;;;;;;;;;;4996548;28;20447;-89
2021/09/16 07:10:50;;;;;;;6.07;3.00;;;;;;;;;;4995819;28;20533;-83
2021/09/16 07:13:17;;;;;;;8.10;3.40;;;;;;;;;;4992382;28;20499;-86
2021/09/16 07:15:44;;;;;;;5.20;3.10;;;;;;;;;;4980280;28;20456;-83
2021/09/16 07:18:11;;;;;;;4.10;3.40;;;;;;;;;;4990955;28;20444;-80
2021/09/16 07:20:38;;;;;;;6.63;3.60;;;;;;;;;;4993341;28;20964;-82
2021/09/16 07:23:07;;;;;;;7.23;3.50;;;;;;;;;;4997801;28;20451;-86
2021/09/16 07:25:34;;;;;;;5.23;3.20;;;;;;;;;;4994021;28;20434;-85
2021/09/16 07:28:01;;;;;;;9.07;3.40;;;;;;;;;;4995116;28;20470;-81
2021/09/16 07:30:28;;;;;;;6.90;4.10;;;;;;;;;;4994194;28;20570;-82
2021/09/16 07:32:55;;;;;;;6.67;3.73;;;;;;;;;;4996159;28;20575;-82
2021/09/16 07:35:23;;;;;;;8.37;3.73;;;;;;;;;;4996035;28;20414;-85
2021/09/16 07:37:50;;;;;;;6.80;4.00;;;;;;;;;;4988989;28;20824;-80
2021/09/16 07:40:20;;;;;;;5.50;3.77;;;;;;;;;;4988843;28;20429;-81
2021/09/16 07:42:47;;;;;;;5.63;3.87;;;;;;;;;;4973764;28;20448;-83
2021/09/16 07:45:14;;;;;;;8.00;4.53;;;;;;;;;;4973580;28;20437;-80
2021/09/16 07:47:41;;;;;;;5.30;3.60;;;;;;;;;;4973947;28;20450;-86
2021/09/16 07:50:09;;;;;;;7.13;3.67;;;;;;;;;;4986581;28;20862;-82
2021/09/16 07:52:36;;;;;;;8.10;4.40;;;;;;;;;;4993725;28;20495;-82
2021/09/16 07:55:03;;;;;;;6.77;4.37;;;;;;;;;;4993855;28;20466;-84
2021/09/16 07:57:32;;;;;;;6.77;4.47;;;;;;;;;;4994960;28;20450;-80
2021/09/16 07:59:59;;;;;;;5.60;4.20;;;;;;;;;;4988115;28;20563;-87
2021/09/16 08:02:26;;;;;;;8.00;3.80;;;;;;;;;;4989568;28;20440;-79
2021/09/16 08:04:53;;;;;;;5.00;4.43;;;;;;;;;;4992757;28;20440;-87
2021/09/16 08:07:20;;;;;;;5.67;3.83;;;;;;;;;;4992598;28;20418;-83
2021/09/16 08:09:48;;;;;;;4.40;3.73;;;;;;;;;;4991626;28;20870;-82
2021/09/16 08:12:15;;;;;;;5.53;3.50;;;;;;;;;;4993708;28;20498;-86
2021/09/16 08:14:43;;;;;;;11.07;4.50;;;;;;;;;;4994231;28;20414;-85
2021/09/16 08:17:10;;;;;;;5.43;4.50;;;;;;;;;;4995168;28;20515;-78
2021/09/16 08:19:40;;;;;;;5.87;4.23;;;;;;;;;;4994526;28;20470;-84
2021/09/16 08:22:07;;;;;;;7.57;4.40;;;;;;;;;;4987318;28;20559;-84
2021/09/16 08:24:34;;;;;;;5.43;4.63;;;;;;;;;;4989833;28;20483;-81
2021/09/16 08:27:01;;;;;;;6.37;4.60;;;;;;;;;;4991571;28;20882;-82
2021/09/16 08:29:28;;;;;;;5.40;4.20;;;;;;;;;;4992193;28;20803;-82
2021/09/16 08:31:57;;;;;;;12.60;5.30;;;;;;;;;;4990108;28;20998;-86
2021/09/16 08:34:25;;;;;;;8.60;4.57;;;;;;;;;;4992067;28;20832;-86
2021/09/16 08:36:52;;;;;;;6.00;4.13;;;;;;;;;;4993130;28;20519;-83
2021/09/16 08:39:19;;;;;;;4.97;4.23;;;;;;;;;;4994291;28;20464;-83
2021/09/16 08:41:47;;;;;;;7.60;4.57;;;;;;;;;;4993047;28;20470;-85
2021/09/16 08:44:14;;;;;;;5.43;3.50;;;;;;;;;;4992094;28;20442;-85
2021/09/16 08:46:41;;;;;;;5.87;3.40;;;;;;;;;;4988451;28;20432;-82
2021/09/16 08:49:10;;;;;;;3.83;3.43;;;;;;;;;;4991310;28;20836;-81
2021/09/16 08:51:39;;;;;;;7.07;4.30;;;;;;;;;;4989140;28;20468;-82
2021/09/16 08:54:07;;;;;;;5.97;3.23;;;;;;;;;;4990526;28;20464;-81
2021/09/16 08:56:34;;;;;;;6.30;4.23;;;;;;;;;;4991470;28;20463;-82
2021/09/16 08:59:04;;;;;;;7.00;5.67;;;;;;;;;;4990041;28;21725;-81
2021/09/16 09:01:31;;;;;;;10.23;5.10;;;;;;;;;;4988158;28;20459;-79
2021/09/16 09:03:58;;;;;;;3.97;3.20;;;;;;;;;;4988784;28;20468;-81
2021/09/16 09:06:28;;;;;;;5.60;3.50;;;;;;;;;;4991674;28;20454;-81
2021/09/16 09:09:10;;;;;;;3.63;3.13;;;;;;;;;;4971577;28;20445;-80
2021/09/16 09:11:50;;;;;;;5.00;3.53;;;;;;;;;;4958773;28;20469;-81
2021/09/16 09:14:18;;;;;;;5.20;2.90;;;;;;;;;;4971455;28;20449;-80
2021/09/16 09:16:45;;;;;;;6.93;3.50;;;;;;;;;;4993149;28;20448;-81
2021/09/16 09:19:15;;;;;;;4.33;3.80;;;;;;;;;;4993194;28;20968;-81
2021/09/16 09:21:44;;;;;;;4.50;3.30;;;;;;;;;;4989936;28;20440;-81
2021/09/16 09:24:12;;;;;;;6.37;3.43;;;;;;;;;;4986410;28;20467;-82
2021/09/16 09:26:39;;;;;;;5.63;3.30;;;;;;;;;;4993069;28;20460;-81
2021/09/16 09:29:15;;;;;;;5.07;3.63;;;;;;;;;;4977949;28;20459;-81
2021/09/16 09:31:44;;;;;;;4.87;3.50;;;;;;;;;;4992034;28;20460;-80
2021/09/16 09:34:23;;;;;;;5.23;3.80;;;;;;;;;;4996224;28;20447;-80
2021/09/16 09:36:52;;;;;;;3.63;3.20;;;;;;;;;;4997604;28;20526;-81
2021/09/16 09:39:26;;;;;;;5.00;3.50;;;;;;;;;;4979981;28;20466;-78
2021/09/16 09:41:53;;;;;;;3.50;2.90;;;;;;;;;;4995500;28;20853;-80
2021/09/16 09:44:20;;;;;;;5.30;3.23;;;;;;;;;;4974483;28;20790;-82
2021/09/16 09:46:50;;;;;;;4.60;2.80;;;;;;;;;;4991112;28;20808;-81
2021/09/16 09:49:19;;;;;;;5.70;3.10;;;;;;;;;;4993915;28;20491;-80
2021/09/16 09:51:48;;;;;;;4.30;3.20;;;;;;;;;;4994120;28;20474;-79
2021/09/16 09:54:19;;;;;;;3.83;3.07;;;;;;;;;;4992621;28;20456;-81
2021/09/16 09:57:01;;;;;;;5.77;3.10;;;;;;;;;;4994780;28;20452;-81
2021/09/16 09:59:29;;;;;;;5.47;3.27;;;;;;;;;;4995891;28;21050;-82
2021/09/16 10:02:03;;;;;;;3.87;3.00;;;;;;;;;;4996853;28;20439;-80
2021/09/16 10:04:31;;;;;;;4.73;3.30;;;;;;;;;;4978636;28;20462;-81
2021/09/16 10:06:58;;;;;;;5.70;2.60;;;;;;;;;;4974080;28;20953;-82
2021/09/16 10:09:27;;;;;;;3.07;2.20;;;;;;;;;;4971429;28;20466;-79
2021/09/16 10:11:55;;;;;;;4.23;2.60;;;;;;;;;;4991758;28;20452;-78
2021/09/16 10:14:22;;;;;;;4.47;2.50;;;;;;;;;;4991618;28;20463;-80
2021/09/16 10:16:50;;;;;;;5.53;3.00;;;;;;;;;;4993233;28;20448;-80
2021/09/16 10:19:17;;;;;;;5.50;3.20;;;;;;;;;;4987125;28;20468;-77
2021/09/16 10:21:45;;;;;;;4.20;2.77;;;;;;;;;;4985034;28;20806;-77
2021/09/16 10:24:16;;;;;;;5.17;3.13;;;;;;;;;;4989358;28;20937;-78
2021/09/16 10:26:47;;;;;;;3.73;2.40;;;;;;;;;;4992253;28;20530;-80
2021/09/16 10:29:29;;;;;;;4.17;2.90;;;;;;;;;;4977164;28;20821;-82
2021/09/16 10:32:27;;;;;;;3.70;2.90;;;;;;;;;;4979021;28;20448;-79
2021/09/16 10:34:58;;;;;;;3.83;2.53;;;;;;;;;;4971217;28;20464;-79
2021/09/16 10:37:26;;;;;;;3.03;2.43;;;;;;;;;;4993794;28;20479;-77
2021/09/16 10:39:53;;;;;;;2.77;2.53;;;;;;;;;;4995220;28;20474;-78
2021/09/16 10:42:42;;;;;;;4.37;3.03;;;;;;;;;;4994930;28;20459;-78
2021/09/16 10:45:09;;;;;;;3.23;2.23;;;;;;;;;;4971012;28;20452;-78
2021/09/16 10:47:36;;;;;;;2.90;2.50;;;;;;;;;;4989758;28;20460;-78
2021/09/16 10:50:19;;;;;;;6.40;2.40;;;;;;;;;;4990974;28;20475;-79
2021/09/16 10:52:47;;;;;;;5.13;2.90;;;;;;;;;;4986699;28;21076;-81
2021/09/16 10:55:14;;;;;;;2.90;2.40;;;;;;;;;;4994117;28;20479;-79
2021/09/16 10:57:42;;;;;;;4.93;2.90;;;;;;;;;;4992627;28;20460;-81
2021/09/16 11:00:12;;;;;;;4.70;2.27;;;;;;;;;;4994333;28;20479;-81
2021/09/16 11:02:55;;;;;;;3.47;2.30;;;;;;;;;;4995827;28;20452;-81
2021/09/16 11:05:22;;;;;;;3.00;2.00;;;;;;;;;;4980392;28;20452;-80
2021/09/16 11:07:52;;;;;;;2.50;2.07;;;;;;;;;;4989589;28;20455;-79
2021/09/16 11:10:34;;;;;;;2.93;2.73;;;;;;;;;;4989673;28;20483;-79
2021/09/16 11:13:05;;;;;;;4.00;2.60;;;;;;;;;;4991797;28;20480;-81
2021/09/16 11:15:34;;;;;;;2.67;2.33;;;;;;;;;;4971771;28;20475;-80
2021/09/16 11:18:03;;;;;;;3.10;2.30;;;;;;;;;;4973576;28;20832;-80
2021/09/16 11:20:30;;;;;;;3.50;2.57;;;;;;;;;;4961694;28;20519;-79
2021/09/16 11:22:57;;;;;;;6.60;2.53;;;;;;;;;;4973555;28;20800;-79
2021/09/16 11:25:25;;;;;;;2.30;2.10;;;;;;;;;;4977877;28;20436;-79
2021/09/16 11:27:55;;;;;;;2.60;2.20;;;;;;;;;;4978218;28;20530;-77
2021/09/16 11:30:24;;;;;;;3.07;2.77;;;;;;;;;;4987004;28;20471;-80
2021/09/16 11:32:51;;;;;;;3.80;2.40;;;;;;;;;;4989793;28;20486;-79
2021/09/16 11:35:19;;;;;;;3.30;2.00;;;;;;;;;;4992930;28;20447;-78
2021/09/16 11:37:47;;;;;;;2.50;2.30;;;;;;;;;;4992872;28;20456;-81
2021/09/16 11:40:17;;;;;;;2.70;2.00;;;;;;;;;;4971137;28;20483;-81
2021/09/16 11:42:46;;;;;;;4.40;2.30;;;;;;;;;;4974769;28;20464;-78
2021/09/16 11:45:14;;;;;;;3.47;2.23;;;;;;;;;;4975505;28;20472;-80
2021/09/16 11:47:45;;;;;;;3.20;2.23;;;;;;;;;;4983376;28;20478;-80
2021/09/16 11:50:21;;;;;;;5.13;2.17;;;;;;;;;;4993490;28;20480;-82
2021/09/16 11:52:49;;;;;;;2.80;2.00;;;;;;;;;;4989852;28;20495;-79
2021/09/16 11:55:17;;;;;;;3.00;2.07;;;;;;;;;;4971234;28;20985;-80
2021/09/16 11:57:59;;;;;;;5.00;2.00;;;;;;;;;;4991887;28;20442;-79
2021/09/16 12:00:28;;;;;;;2.60;1.93;;;;;;;;;;4987418;28;20489;-80
2021/09/16 12:02:56;;;;;;;3.30;2.07;;;;;;;;;;4991534;28;20443;-81
2021/09/16 12:05:38;;;;;;;3.10;1.97;;;;;;;;;;4979974;28;20467;-80
2021/09/16 12:08:06;;;;;;;3.40;2.27;;;;;;;;;;4973498;28;20459;-80
2021/09/16 12:10:37;;;;;;;4.27;3.43;;;;;;;;;;4994592;28;20459;-81
2021/09/16 12:13:05;;;;;;;4.53;2.50;;;;;;;;;;4994390;28;20475;-80
2021/09/16 12:15:33;;;;;;;4.63;2.40;;;;;;;;;;4970267;28;20523;-80
2021/09/16 12:18:01;;;;;;;2.80;2.27;;;;;;;;;;4988496;28;20559;-80
2021/09/16 12:20:29;;;;;;;3.53;2.37;;;;;;;;;;4991969;28;20474;-81
2021/09/16 12:22:56;;;;;;;3.13;2.10;;;;;;;;;;4992246;28;20455;-80
2021/09/16 12:25:26;;;;;;;2.77;2.00;;;;;;;;;;4992411;28;20814;-78
2021/09/16 12:28:07;;;;;;;2.07;1.63;;;;;;;;;;4992462;28;20538;-80
2021/09/16 12:30:36;;;;;;;1.80;1.60;;;;;;;;;;4979098;28;20550;-80
2021/09/16 12:33:05;;;;;;;3.83;2.17;;;;;;;;;;4994192;28;20519;-78
2021/09/16 12:35:32;;;;;;;4.23;2.07;;;;;;;;;;4994208;28;21021;-79
2021/09/16 12:38:06;;;;;;;2.10;1.90;;;;;;;;;;4987100;28;20813;-81
2021/09/16 12:40:34;;;;;;;2.57;2.20;;;;;;;;;;4971519;28;20452;-80
2021/09/16 12:43:05;;;;;;;2.53;2.30;;;;;;;;;;4974767;28;20948;-80
2021/09/16 12:45:32;;;;;;;1.90;1.80;;;;;;;;;;4970207;28;20816;-82
2021/09/16 12:48:00;;;;;;;2.63;2.03;;;;;;;;;;4972901;28;20447;-79
2021/09/16 12:50:28;;;;;;;4.03;2.17;;;;;;;;;;4987284;28;20480;-80
2021/09/16 12:53:00;;;;;;;2.63;2.10;;;;;;;;;;4994034;28;20484;-81
2021/09/16 12:55:28;;;;;;;2.93;2.00;;;;;;;;;;4999019;28;20456;-80
2021/09/16 12:58:06;;;;;;;5.23;2.60;;;;;;;;;;5000769;28;20463;-79
2021/09/16 13:00:33;;;;;;;4.73;2.50;;;;;;;;;;4990041;28;21030;-79
2021/09/16 13:03:02;;;;;;;3.20;2.67;;;;;;;;;;4994225;28;20957;-81
2021/09/16 13:05:34;;;;;;;3.57;2.80;;;;;;;;;;4995933;28;20466;-79
2021/09/16 13:08:05;;;;;;;3.30;2.57;;;;;;;;;;4993635;28;20510;-77
2021/09/16 13:10:32;;;;;;;3.30;2.60;;;;;;;;;;4978541;28;20460;-80
2021/09/16 13:13:03;;;;;;;2.60;2.00;;;;;;;;;;4996997;28;20446;-80
2021/09/16 13:15:33;;;;;;;3.70;2.47;;;;;;;;;;4997817;28;21003;-81
2021/09/16 13:18:01;;;;;;;7.73;2.73;;;;;;;;;;4978537;28;20458;-78
2021/09/16 13:20:28;;;;;;;2.83;2.17;;;;;;;;;;4996802;28;21052;-79
2021/09/16 13:22:56;;;;;;;5.83;2.63;;;;;;;;;;4973064;28;20779;-79
2021/09/16 13:25:24;;;;;;;2.30;2.10;;;;;;;;;;4992756;28;20991;-78
2021/09/16 13:27:51;;;;;;;4.90;2.70;;;;;;;;;;4995397;28;20454;-79
2021/09/16 13:30:19;;;;;;;4.33;2.50;;;;;;;;;;4993852;28;20870;-82
2021/09/16 13:32:46;;;;;;;4.17;2.20;;;;;;;;;;4994191;28;20464;-80
2021/09/16 13:35:14;;;;;;;3.83;2.20;;;;;;;;;;4996213;28;20498;-78
2021/09/16 13:37:41;;;;;;;2.87;2.40;;;;;;;;;;4980169;28;20501;-78
2021/09/16 13:40:11;;;;;;;4.73;2.80;;;;;;;;;;4997213;28;20460;-79
2021/09/16 13:42:39;;;;;;;4.80;2.20;;;;;;;;;;4980105;28;20448;-80
2021/09/16 13:45:07;;;;;;;2.90;2.03;;;;;;;;;;4989983;28;20439;-78
2021/09/16 13:47:34;;;;;;;4.33;2.20;;;;;;;;;;4992323;28;20447;-80
2021/09/16 13:50:01;;;;;;;6.63;2.70;;;;;;;;;;4994611;28;20498;-80
2021/09/16 13:52:28;;;;;;;3.40;2.30;;;;;;;;;;4989843;28;20567;-79
2021/09/16 13:54:55;;;;;;;2.07;1.80;;;;;;;;;;4993069;28;20832;-80
2021/09/16 13:57:24;;;;;;;7.10;2.90;;;;;;;;;;4995659;28;20915;-80
2021/09/16 13:59:51;;;;;;;3.13;2.43;;;;;;;;;;4996672;28;20474;-79
2021/09/16 14:02:18;;;;;;;3.77;2.30;;;;;;;;;;4996668;28;20538;-80
2021/09/16 14:04:45;;;;;;;6.73;2.20;;;;;;;;;;4996638;28;20447;-80
2021/09/16 14:07:12;;;;;;;3.40;2.10;;;;;;;;;;4990945;28;20436;-79
2021/09/16 14:09:40;;;;;;;3.57;2.60;;;;;;;;;;4991550;28;20464;-80
2021/09/16 14:12:07;;;;;;;2.63;2.13;;;;;;;;;;4993239;28;20454;-80
2021/09/16 14:14:36;;;;;;;4.50;1.70;;;;;;;;;;4994280;28;20977;-81
2021/09/16 14:17:03;;;;;;;2.13;1.93;;;;;;;;;;4994607;28;20444;-80
2021/09/16 14:19:31;;;;;;;4.87;2.20;;;;;;;;;;4995282;28;20475;-78
2021/09/16 14:21:58;;;;;;;2.57;2.30;;;;;;;;;;4995709;28;20466;-79
2021/09/16 14:24:25;;;;;;;2.73;1.80;;;;;;;;;;4996516;28;20456;-79
2021/09/16 14:26:54;;;;;;;3.10;1.83;;;;;;;;;;4996518;28;20446;-80
2021/09/16 14:29:21;;;;;;;2.63;1.97;;;;;;;;;;4990968;28;20517;-79
2021/09/16 14:31:50;;;;;;;2.77;2.30;;;;;;;;;;4989989;28;20448;-78
2021/09/16 14:34:17;;;;;;;4.10;2.40;;;;;;;;;;4994132;28;20856;-77
2021/09/16 14:36:44;;;;;;;2.23;1.40;;;;;;;;;;4993761;28;21012;-76
2021/09/16 14:39:11;;;;;;;3.17;1.80;;;;;;;;;;4994240;28;20472;-77
2021/09/16 14:41:39;;;;;;;2.40;1.90;;;;;;;;;;4992598;28;20474;-80
2021/09/16 14:44:06;;;;;;;2.27;2.00;;;;;;;;;;4995907;28;20451;-78
2021/09/16 14:46:33;;;;;;;2.47;1.90;;;;;;;;;;4996379;28;20546;-80
2021/09/16 14:49:02;;;;;;;3.57;1.83;;;;;;;;;;4993851;28;20444;-80
2021/09/16 14:51:29;;;;;;;2.60;1.93;;;;;;;;;;4988660;28;20439;-80